Time;durP1;ratioP1;P1;durP2;ratioP2;P2;SDS_P1;SDS_P2;PMS_P1;PMS_P2;Temp;Humidity;BMP_temperature;BMP_pressure;BME280_temperature;BME280_humidity;BME280_pressure;Samples;Min_cycle;Max_cycle;Signal;HPM_P1;HPM_P2
2021/09/11 00:00:53;;;;;;;11.50;7.20;;;22.40;96.70;;;;;;4965186;28;20093;-74
2021/09/11 00:03:21;;;;;;;9.45;7.05;;;22.40;96.70;;;;;;4962394;28;20035;-74
2021/09/11 00:05:50;;;;;;;9.60;7.70;;;22.40;96.70;;;;;;4966709;28;20049;-74
2021/09/11 00:08:19;;;;;;;8.40;7.70;;;22.40;96.70;;;;;;4959802;28;20035;-74
2021/09/11 00:10:47;;;;;;;9.80;7.97;;;22.20;96.70;;;;;;4965678;28;20051;-74
2021/09/11 00:13:17;;;;;;;9.15;7.60;;;21.90;96.70;;;;;;4960539;28;20047;-74
2021/09/11 00:15:47;;;;;;;8.13;7.30;;;21.80;96.70;;;;;;4959928;28;20445;-74
2021/09/11 00:18:15;;;;;;;9.00;7.43;;;21.60;96.70;;;;;;4957036;28;20067;-74
2021/09/11 00:20:43;;;;;;;8.05;7.25;;;21.50;96.70;;;;;;4958451;28;20501;-74
2021/09/11 00:23:12;;;;;;;8.68;7.70;;;21.50;96.70;;;;;;4957374;28;20050;-74
2021/09/11 00:25:41;;;;;;;8.68;7.30;;;21.50;96.70;;;;;;4963747;28;20405;-74
2021/09/11 00:28:09;;;;;;;11.05;7.78;;;21.60;96.70;;;;;;4959842;28;20505;-74
2021/09/11 00:30:39;;;;;;;8.60;7.15;;;21.70;96.70;;;;;;4963150;28;20042;-74
2021/09/11 00:33:08;;;;;;;9.50;7.72;;;21.90;96.70;;;;;;4967663;28;20043;-74
2021/09/11 00:35:36;;;;;;;11.00;7.22;;;22.00;96.70;;;;;;4959171;28;20103;-74
2021/09/11 00:38:04;;;;;;;7.82;7.13;;;22.10;96.70;;;;;;4963005;28;20043;-74
2021/09/11 00:40:32;;;;;;;8.05;7.22;;;22.20;96.70;;;;;;4963896;28;20066;-74
2021/09/11 00:43:01;;;;;;;7.88;7.20;;;22.20;96.70;;;;;;4956796;28;20678;-74
2021/09/11 00:45:29;;;;;;;8.82;7.93;;;21.80;96.70;;;;;;4958358;28;20097;-74
2021/09/11 00:47:59;;;;;;;8.48;7.55;;;21.60;96.70;;;;;;4958661;28;20509;-74
2021/09/11 00:50:27;;;;;;;9.20;7.43;;;21.50;96.70;;;;;;4958379;28;20140;-74
2021/09/11 00:52:56;;;;;;;7.72;6.85;;;21.60;96.70;;;;;;4959674;28;20702;-74
2021/09/11 00:55:24;;;;;;;10.48;7.40;;;21.80;96.70;;;;;;4960514;28;20050;-74
2021/09/11 00:57:53;;;;;;;8.98;7.88;;;21.90;96.70;;;;;;4956599;28;20506;-74
2021/09/11 01:00:22;;;;;;;9.48;8.15;;;21.70;96.70;;;;;;4959467;28;20046;-74
2021/09/11 01:02:50;;;;;;;8.68;7.65;;;21.50;96.70;;;;;;4954732;28;20395;-74
2021/09/11 01:05:21;;;;;;;9.63;8.20;;;21.30;96.70;;;;;;4961133;28;20120;-74
2021/09/11 01:07:49;;;;;;;8.52;7.60;;;21.30;96.70;;;;;;4956843;28;20050;-74
2021/09/11 01:10:17;;;;;;;8.63;7.82;;;21.50;96.70;;;;;;4963143;28;20035;-74
2021/09/11 01:12:47;;;;;;;9.25;7.30;;;21.60;96.70;;;;;;4960225;28;20559;-74
2021/09/11 01:15:17;;;;;;;8.27;7.00;;;21.50;96.70;;;;;;4963918;28;20051;-74
2021/09/11 01:17:46;;;;;;;9.45;7.43;;;21.60;96.70;;;;;;4962721;28;20057;-74
2021/09/11 01:20:15;;;;;;;8.68;7.63;;;21.60;96.70;;;;;;4959821;28;20874;-74
2021/09/11 01:22:45;;;;;;;8.27;7.57;;;21.60;96.70;;;;;;4958882;28;20046;-74
2021/09/11 01:25:15;;;;;;;8.98;7.30;;;21.60;96.70;;;;;;4960151;28;20491;-73
2021/09/11 01:27:44;;;;;;;10.88;8.02;;;21.50;96.70;;;;;;4961298;28;20053;-74
2021/09/11 01:30:14;;;;;;;8.80;7.45;;;21.60;96.70;;;;;;4961134;28;20047;-75
2021/09/11 01:32:43;;;;;;;8.45;7.55;;;21.60;96.70;;;;;;4977759;28;20075;-74
2021/09/11 01:35:12;;;;;;;7.93;7.20;;;21.50;96.70;;;;;;4960767;28;20050;-74
2021/09/11 01:37:41;;;;;;;7.68;6.97;;;21.60;96.70;;;;;;4970973;28;20047;-74
2021/09/11 01:40:10;;;;;;;8.88;7.03;;;21.70;96.70;;;;;;4967566;28;20038;-74
2021/09/11 01:42:40;;;;;;;9.00;7.50;;;21.60;96.70;;;;;;4969278;28;20047;-74
2021/09/11 01:45:11;;;;;;;9.02;7.20;;;21.60;96.70;;;;;;4966464;28;20125;-74
2021/09/11 01:47:40;;;;;;;9.40;7.95;;;21.40;96.70;;;;;;4967146;28;20105;-74
2021/09/11 01:50:11;;;;;;;8.90;8.00;;;21.40;96.70;;;;;;4970958;28;20232;-74
2021/09/11 01:52:40;;;;;;;10.38;7.95;;;21.40;96.70;;;;;;4964011;28;20556;-74
2021/09/11 01:55:10;;;;;;;7.50;6.80;;;21.30;96.70;;;;;;4962453;28;20489;-74
2021/09/11 01:57:41;;;;;;;8.32;7.63;;;21.40;96.70;;;;;;4966797;28;20505;-73
2021/09/11 02:00:11;;;;;;;8.02;7.22;;;21.40;96.70;;;;;;4965040;28;20070;-74
2021/09/11 02:02:39;;;;;;;8.20;7.22;;;21.50;96.70;;;;;;4968853;28;20074;-74
2021/09/11 02:05:09;;;;;;;9.18;8.25;;;21.40;96.70;;;;;;4964977;28;20105;-74
2021/09/11 02:07:37;;;;;;;9.00;8.20;;;21.20;96.70;;;;;;4965926;28;20039;-74
2021/09/11 02:10:08;;;;;;;8.65;7.50;;;20.90;96.70;;;;;;4962102;28;20535;-74
2021/09/11 02:12:37;;;;;;;9.40;8.18;;;20.70;96.70;;;;;;4953943;28;20074;-73
2021/09/11 02:15:09;;;;;;;8.45;7.65;;;20.70;96.70;;;;;;4964106;28;20054;-74
2021/09/11 02:17:38;;;;;;;8.27;7.47;;;20.90;96.70;;;;;;4982413;28;20056;-73
2021/09/11 02:20:08;;;;;;;8.20;7.50;;;21.10;96.70;;;;;;4961743;28;20378;-72
2021/09/11 02:22:38;;;;;;;8.95;7.60;;;21.20;96.70;;;;;;4968050;28;20047;-74
2021/09/11 02:25:08;;;;;;;8.90;7.07;;;21.20;96.70;;;;;;4965571;28;20047;-73
2021/09/11 02:27:38;;;;;;;8.43;7.38;;;21.30;96.70;;;;;;4964836;28;20051;-74
2021/09/11 02:30:09;;;;;;;7.95;7.25;;;21.30;96.70;;;;;;4971927;28;20093;-74
2021/09/11 02:32:38;;;;;;;7.93;7.22;;;21.20;96.70;;;;;;4979842;28;20515;-74
2021/09/11 02:35:08;;;;;;;7.43;6.72;;;21.10;96.70;;;;;;4962111;28;20051;-74
2021/09/11 02:37:36;;;;;;;7.82;7.03;;;21.00;96.70;;;;;;4964595;28;20043;-74
2021/09/11 02:40:06;;;;;;;7.45;6.75;;;20.90;96.70;;;;;;4966305;28;20514;-74
2021/09/11 02:42:34;;;;;;;8.63;7.60;;;21.00;96.70;;;;;;4966597;28;20552;-73
2021/09/11 02:45:02;;;;;;;7.75;7.07;;;20.90;96.70;;;;;;4964958;28;20047;-73
2021/09/11 02:47:32;;;;;;;7.78;7.07;;;21.00;96.70;;;;;;4973336;28;20603;-74
2021/09/11 02:50:00;;;;;;;8.43;7.07;;;20.90;96.70;;;;;;4961733;28;20038;-74
2021/09/11 02:52:28;;;;;;;7.43;6.60;;;20.90;96.70;;;;;;4961878;28;20097;-74
2021/09/11 02:54:56;;;;;;;7.65;6.85;;;21.00;96.70;;;;;;4966734;28;20051;-74
2021/09/11 02:57:24;;;;;;;10.32;7.50;;;21.00;96.70;;;;;;4960686;28;20146;-73
2021/09/11 02:59:52;;;;;;;8.95;8.05;;;20.90;96.70;;;;;;4962144;28;20476;-74
2021/09/11 03:02:20;;;;;;;8.40;7.57;;;20.90;96.70;;;;;;4964869;28;20039;-74
2021/09/11 03:04:49;;;;;;;8.20;7.40;;;20.80;96.70;;;;;;4964432;28;20137;-74
2021/09/11 03:07:18;;;;;;;8.10;7.30;;;20.90;96.70;;;;;;4963881;28;20397;-74
2021/09/11 03:09:46;;;;;;;7.93;7.13;;;20.90;96.70;;;;;;4970244;28;20054;-74
2021/09/11 03:12:14;;;;;;;8.05;7.30;;;20.80;96.70;;;;;;4961423;28;20047;-74
2021/09/11 03:14:42;;;;;;;9.45;7.93;;;20.90;96.70;;;;;;4964251;28;20043;-73
2021/09/11 03:17:10;;;;;;;8.77;7.15;;;20.80;96.70;;;;;;4958891;28;20763;-74
2021/09/11 03:19:38;;;;;;;8.32;7.55;;;20.70;96.70;;;;;;4964431;28;20516;-73
2021/09/11 03:22:08;;;;;;;7.78;7.07;;;20.60;96.70;;;;;;4957911;28;20536;-74
2021/09/11 03:24:36;;;;;;;8.30;7.50;;;20.40;96.70;;;;;;4962508;28;20138;-74
2021/09/11 03:27:04;;;;;;;8.07;7.35;;;20.20;96.70;;;;;;4962694;28;20050;-74
2021/09/11 03:29:32;;;;;;;8.25;7.45;;;20.10;96.70;;;;;;4965528;28;20134;-74
2021/09/11 03:32:00;;;;;;;8.63;7.72;;;20.00;96.70;;;;;;4958129;28;20046;-74
2021/09/11 03:34:29;;;;;;;7.90;7.10;;;20.00;96.70;;;;;;4957555;28;20416;-74
2021/09/11 03:36:57;;;;;;;10.70;7.88;;;20.00;96.70;;;;;;4958929;28;20509;-74
2021/09/11 03:39:26;;;;;;;9.07;8.20;;;20.30;96.70;;;;;;4966375;28;20036;-74
2021/09/11 03:41:54;;;;;;;9.02;8.20;;;20.60;96.70;;;;;;4960798;28;20038;-74
2021/09/11 03:44:22;;;;;;;9.98;7.38;;;20.60;96.70;;;;;;4964645;28;20053;-74
2021/09/11 03:46:50;;;;;;;8.52;7.65;;;20.60;96.70;;;;;;4964858;28;20045;-74
2021/09/11 03:49:18;;;;;;;9.75;8.57;;;20.60;96.70;;;;;;4961700;28;20318;-73
2021/09/11 03:51:46;;;;;;;9.73;8.80;;;20.60;96.70;;;;;;4963854;28;20058;-73
2021/09/11 03:54:14;;;;;;;9.25;8.25;;;20.60;96.70;;;;;;4959356;28;20106;-73
2021/09/11 03:56:43;;;;;;;8.95;8.05;;;20.60;96.70;;;;;;4963214;28;20544;-74
2021/09/11 03:59:11;;;;;;;8.00;7.28;;;20.60;96.70;;;;;;4956918;28;20047;-73
2021/09/11 04:01:39;;;;;;;12.32;8.70;;;20.70;96.70;;;;;;4972284;28;20047;-74
2021/09/11 04:04:07;;;;;;;9.38;8.48;;;20.60;96.70;;;;;;4964308;28;20031;-74
2021/09/11 04:06:35;;;;;;;8.73;7.90;;;20.60;96.70;;;;;;4959072;28;20039;-74
2021/09/11 04:09:03;;;;;;;10.43;8.20;;;20.30;96.70;;;;;;4958474;28;20118;-74
2021/09/11 04:11:31;;;;;;;8.93;8.13;;;20.10;96.70;;;;;;4965689;28;20572;-73
2021/09/11 04:14:01;;;;;;;9.35;7.95;;;19.90;96.70;;;;;;4957757;28;20106;-74
2021/09/11 04:16:29;;;;;;;8.85;7.95;;;19.80;96.70;;;;;;4963564;28;20049;-74
2021/09/11 04:18:57;;;;;;;8.68;7.88;;;19.70;96.70;;;;;;4957547;28;20054;-74
2021/09/11 04:21:25;;;;;;;8.55;7.75;;;19.80;96.70;;;;;;4961361;28;20042;-74
2021/09/11 04:23:53;;;;;;;9.32;8.15;;;20.10;96.70;;;;;;4961043;28;20050;-74
2021/09/11 04:26:21;;;;;;;9.07;8.18;;;20.20;96.70;;;;;;4964075;28;20473;-74
2021/09/11 04:28:49;;;;;;;8.10;7.30;;;20.30;96.70;;;;;;4964687;28;20469;-74
2021/09/11 04:31:18;;;;;;;8.93;7.90;;;20.40;96.70;;;;;;4962289;28;20109;-74
2021/09/11 04:33:46;;;;;;;8.75;7.95;;;20.40;96.70;;;;;;4970806;28;20122;-74
2021/09/11 04:36:14;;;;;;;9.05;7.40;;;20.50;96.70;;;;;;4963677;28;20047;-74
2021/09/11 04:38:42;;;;;;;8.57;7.85;;;20.50;96.70;;;;;;4966212;28;20488;-74
2021/09/11 04:41:10;;;;;;;8.57;7.80;;;20.50;96.70;;;;;;4969939;28;20425;-74
2021/09/11 04:43:38;;;;;;;9.02;7.80;;;20.50;96.70;;;;;;4955454;28;20050;-74
2021/09/11 04:46:06;;;;;;;8.63;7.85;;;20.40;96.70;;;;;;4963019;28;20047;-74
2021/09/11 04:48:36;;;;;;;9.15;8.30;;;20.30;96.70;;;;;;4954917;28;20100;-74
2021/09/11 04:51:04;;;;;;;8.90;8.13;;;20.30;96.70;;;;;;4956616;28;20406;-74
2021/09/11 04:53:32;;;;;;;10.05;8.15;;;20.30;96.70;;;;;;4960779;28;20473;-73
2021/09/11 04:56:00;;;;;;;8.38;7.50;;;20.30;96.70;;;;;;4958504;28;20061;-74
2021/09/11 04:58:28;;;;;;;9.88;7.72;;;20.30;96.70;;;;;;4961540;28;20174;-74
2021/09/11 05:00:57;;;;;;;8.73;7.93;;;20.20;96.70;;;;;;4961112;28;20054;-74
2021/09/11 05:03:25;;;;;;;8.82;7.30;;;20.20;96.70;;;;;;4956352;28;20090;-74
2021/09/11 05:05:56;;;;;;;8.10;7.30;;;20.10;96.70;;;;;;4957377;28;20045;-74
2021/09/11 05:08:25;;;;;;;8.80;8.00;;;19.90;96.70;;;;;;4961085;28;20318;-74
2021/09/11 05:10:53;;;;;;;10.18;7.88;;;19.90;96.70;;;;;;4957676;28;20043;-74
2021/09/11 05:13:21;;;;;;;12.52;7.78;;;19.80;96.70;;;;;;4976753;28;20130;-74
2021/09/11 05:15:49;;;;;;;7.97;7.22;;;19.80;96.70;;;;;;4958348;28;20058;-74
2021/09/11 05:18:17;;;;;;;9.38;7.75;;;20.00;96.70;;;;;;4963249;28;20081;-74
2021/09/11 05:20:45;;;;;;;8.10;7.30;;;20.10;96.70;;;;;;4957562;28;20159;-74
2021/09/11 05:23:14;;;;;;;7.82;6.95;;;20.20;96.70;;;;;;4956928;28;20054;-73
2021/09/11 05:25:42;;;;;;;7.70;6.80;;;20.20;96.70;;;;;;4955720;28;20053;-73
2021/09/11 05:28:10;;;;;;;8.13;7.32;;;20.20;96.70;;;;;;4961870;28;20050;-74
2021/09/11 05:30:38;;;;;;;8.45;7.38;;;20.10;96.70;;;;;;4954482;28;20736;-74
2021/09/11 05:33:06;;;;;;;8.52;7.45;;;20.10;96.70;;;;;;4960198;28;20074;-74
2021/09/11 05:35:34;;;;;;;8.80;7.88;;;20.10;96.70;;;;;;4960059;28;20100;-74
2021/09/11 05:38:02;;;;;;;8.50;7.60;;;20.00;96.70;;;;;;4964606;28;20045;-74
2021/09/11 05:40:31;;;;;;;8.70;7.85;;;20.00;96.70;;;;;;4972955;28;20040;-74
2021/09/11 05:42:59;;;;;;;8.88;7.63;;;20.10;96.70;;;;;;4963916;28;20046;-74
2021/09/11 05:45:27;;;;;;;9.20;7.53;;;20.20;96.70;;;;;;4956460;28;20039;-74
2021/09/11 05:47:55;;;;;;;8.07;7.25;;;20.30;96.70;;;;;;4961521;28;20042;-74
2021/09/11 05:50:23;;;;;;;8.32;7.53;;;20.40;96.70;;;;;;4960694;28;20047;-74
2021/09/11 05:52:51;;;;;;;8.65;7.88;;;20.40;96.70;;;;;;4960509;28;20121;-74
2021/09/11 05:55:19;;;;;;;8.77;7.75;;;20.40;96.70;;;;;;4962044;28;20134;-74
2021/09/11 05:57:49;;;;;;;9.38;7.80;;;20.10;96.70;;;;;;4964589;28;20047;-74
2021/09/11 06:00:17;;;;;;;9.02;7.72;;;20.00;96.70;;;;;;4958707;28;20054;-74
2021/09/11 06:02:45;;;;;;;9.77;8.57;;;20.10;96.70;;;;;;4970346;28;20054;-73
2021/09/11 06:05:14;;;;;;;9.38;7.93;;;20.20;96.70;;;;;;4965347;28;20090;-74
2021/09/11 06:07:42;;;;;;;8.70;7.72;;;20.10;96.70;;;;;;4966663;28;20058;-74
2021/09/11 06:10:11;;;;;;;9.27;8.30;;;20.10;96.70;;;;;;4963703;28;20058;-74
2021/09/11 06:12:39;;;;;;;9.02;8.20;;;20.30;96.70;;;;;;4960462;28;20801;-74
2021/09/11 06:15:09;;;;;;;9.13;8.32;;;20.40;96.70;;;;;;4955454;28;20054;-73
2021/09/11 06:17:37;;;;;;;11.27;8.65;;;20.50;96.70;;;;;;4963871;28;20059;-74
2021/09/11 06:20:07;;;;;;;9.70;8.55;;;20.30;96.70;;;;;;4960859;28;20047;-73
2021/09/11 06:22:35;;;;;;;9.98;8.95;;;20.40;96.70;;;;;;4962450;28;20045;-74
2021/09/11 06:25:03;;;;;;;9.95;8.75;;;20.50;96.70;;;;;;4959217;28;20039;-74
2021/09/11 06:27:31;;;;;;;9.95;8.95;;;20.50;96.70;;;;;;4948993;28;20053;-73
2021/09/11 06:29:59;;;;;;;9.73;8.82;;;20.50;96.70;;;;;;4962598;28;20049;-74
2021/09/11 06:32:30;;;;;;;10.48;9.05;;;20.50;96.70;;;;;;4964036;28;20055;-74
2021/09/11 06:35:02;;;;;;;8.90;8.10;;;20.50;96.70;;;;;;4962418;28;20058;-74
2021/09/11 06:37:30;;;;;;;9.98;8.40;;;20.50;96.70;;;;;;4958621;28;20047;-73
2021/09/11 06:39:58;;;;;;;9.75;8.75;;;20.60;96.70;;;;;;4964596;28;20109;-74
2021/09/11 06:42:26;;;;;;;9.73;8.82;;;20.60;96.70;;;;;;4963621;28;20043;-74
2021/09/11 06:44:54;;;;;;;9.60;8.73;;;20.70;96.70;;;;;;4951619;28;20047;-74
2021/09/11 06:47:22;;;;;;;10.32;8.65;;;20.80;96.70;;;;;;4957438;28;20154;-74
2021/09/11 06:49:52;;;;;;;10.68;9.50;;;20.90;96.70;;;;;;4963292;28;20069;-74
2021/09/11 06:52:20;;;;;;;10.07;9.07;;;20.90;96.70;;;;;;4955261;28;20043;-73
2021/09/11 06:54:49;;;;;;;10.98;9.70;;;21.10;96.70;;;;;;4963331;28;20051;-74
2021/09/11 06:57:18;;;;;;;11.68;9.45;;;21.10;96.70;;;;;;4956190;28;20053;-74
2021/09/11 06:59:46;;;;;;;11.48;10.02;;;21.10;96.70;;;;;;4963054;28;20046;-74
2021/09/11 07:02:14;;;;;;;12.35;10.02;;;21.10;96.70;;;;;;4960057;28;20102;-74
2021/09/11 07:04:42;;;;;;;10.55;9.13;;;21.20;96.70;;;;;;4965305;28;20047;-74
2021/09/11 07:07:12;;;;;;;11.73;10.20;;;21.10;96.70;;;;;;4963343;28;20057;-74
2021/09/11 07:09:40;;;;;;;10.35;9.32;;;21.20;96.70;;;;;;4959920;28;20043;-74
2021/09/11 07:12:09;;;;;;;10.63;9.55;;;21.30;96.70;;;;;;4958802;28;20410;-74
2021/09/11 07:14:37;;;;;;;12.77;10.85;;;21.40;96.70;;;;;;4964493;28;20047;-74
2021/09/11 07:17:05;;;;;;;12.15;10.38;;;21.30;96.70;;;;;;4959282;28;20587;-74
2021/09/11 07:19:34;;;;;;;12.77;11.10;;;21.40;96.70;;;;;;4964668;28;20050;-73
2021/09/11 07:22:02;;;;;;;11.95;10.73;;;21.40;96.70;;;;;;4962577;28;20051;-74
2021/09/11 07:24:31;;;;;;;12.07;10.88;;;21.30;96.70;;;;;;4991712;28;20050;-74
2021/09/11 07:27:00;;;;;;;11.75;10.55;;;21.40;96.70;;;;;;4960713;28;20051;-74
2021/09/11 07:29:28;;;;;;;11.18;9.90;;;21.50;96.70;;;;;;4960690;28;20132;-74
2021/09/11 07:31:56;;;;;;;13.98;11.02;;;21.60;96.70;;;;;;4963596;28;20627;-74
2021/09/11 07:34:24;;;;;;;12.75;11.40;;;21.70;96.70;;;;;;4965728;28;20043;-74
2021/09/11 07:36:52;;;;;;;11.82;10.73;;;21.70;96.70;;;;;;4960605;28;20121;-75
2021/09/11 07:39:20;;;;;;;11.43;10.43;;;21.80;96.70;;;;;;4963483;28;20041;-74
2021/09/11 07:41:50;;;;;;;11.75;10.75;;;21.90;96.70;;;;;;4960158;28;20695;-74
2021/09/11 07:44:18;;;;;;;11.85;10.65;;;22.00;96.70;;;;;;4946475;28;20390;-74
2021/09/11 07:46:46;;;;;;;11.57;10.48;;;22.00;96.70;;;;;;4955571;28;20038;-75
2021/09/11 07:49:14;;;;;;;12.38;10.85;;;22.10;96.70;;;;;;4965607;28;20043;-74
2021/09/11 07:51:42;;;;;;;12.48;11.23;;;22.20;96.70;;;;;;4956566;28;20057;-74
2021/09/11 07:54:10;;;;;;;12.48;11.18;;;22.20;96.70;;;;;;4956917;28;20379;-74
2021/09/11 07:56:38;;;;;;;13.30;11.43;;;22.30;96.70;;;;;;4947709;28;20497;-74
2021/09/11 07:59:08;;;;;;;12.07;10.45;;;22.30;96.70;;;;;;4957839;28;20390;-74
2021/09/11 08:01:36;;;;;;;11.48;10.27;;;22.40;96.70;;;;;;4960667;28;20039;-74
2021/09/11 08:04:05;;;;;;;12.68;10.73;;;22.50;96.70;;;;;;4958733;28;20057;-74
2021/09/11 08:06:33;;;;;;;14.93;10.90;;;22.50;96.70;;;;;;4962885;28;20046;-74
2021/09/11 08:09:01;;;;;;;11.07;9.90;;;22.50;96.70;;;;;;4961625;28;20142;-74
2021/09/11 08:11:29;;;;;;;10.68;9.50;;;22.50;96.70;;;;;;4959638;28;20051;-74
2021/09/11 08:13:57;;;;;;;11.10;9.13;;;22.60;96.70;;;;;;4961768;28;20053;-74
2021/09/11 08:16:27;;;;;;;11.20;9.05;;;22.70;96.70;;;;;;4963966;28;20109;-74
2021/09/11 08:18:55;;;;;;;11.93;7.95;;;22.80;96.70;;;;;;4963043;28;20476;-74
2021/09/11 08:21:23;;;;;;;10.90;8.25;;;22.90;96.70;;;;;;4962026;28;20430;-73
2021/09/11 08:23:52;;;;;;;8.63;7.82;;;23.00;96.70;;;;;;4953764;28;20135;-74
2021/09/11 08:26:20;;;;;;;9.07;8.10;;;23.20;96.70;;;;;;4961492;28;20069;-74
2021/09/11 08:28:48;;;;;;;8.38;7.60;;;23.10;96.70;;;;;;4956267;28;20409;-74
2021/09/11 08:31:17;;;;;;;10.18;7.63;;;23.20;96.70;;;;;;4965838;28;20054;-74
2021/09/11 08:33:46;;;;;;;8.63;7.28;;;23.30;96.70;;;;;;4959122;28;20074;-74
2021/09/11 08:36:15;;;;;;;11.32;8.43;;;23.40;96.70;;;;;;4957144;28;20078;-74
2021/09/11 08:38:43;;;;;;;12.88;8.40;;;23.50;96.70;;;;;;4960787;28;20035;-74
2021/09/11 08:41:11;;;;;;;10.25;7.55;;;23.50;96.70;;;;;;4955315;28;20046;-74
2021/09/11 08:43:39;;;;;;;9.80;7.65;;;23.50;96.70;;;;;;4960756;28;20045;-74
2021/09/11 08:46:07;;;;;;;7.85;7.03;;;23.70;96.70;;;;;;4965306;28;20043;-74
2021/09/11 08:48:36;;;;;;;9.60;8.20;;;23.80;96.70;;;;;;4940265;28;20130;-74
2021/09/11 08:51:06;;;;;;;11.02;6.88;;;23.90;96.70;;;;;;4963107;28;20051;-74
2021/09/11 08:53:36;;;;;;;8.05;6.90;;;23.90;96.70;;;;;;4957156;28;20109;-74
2021/09/11 08:56:05;;;;;;;9.50;7.57;;;24.00;96.70;;;;;;4958938;28;20061;-74
2021/09/11 08:58:33;;;;;;;6.82;6.22;;;24.10;96.70;;;;;;4958295;28;20070;-74
2021/09/11 09:01:02;;;;;;;7.90;7.00;;;24.20;96.70;;;;;;4941121;28;20625;-74
2021/09/11 09:03:36;;;;;;;8.18;6.75;;;24.30;96.70;;;;;;4960371;28;20038;-74
2021/09/11 09:06:16;;;;;;;8.70;7.10;;;24.30;96.70;;;;;;4958399;28;20055;-74
2021/09/11 09:08:46;;;;;;;7.25;6.55;;;24.30;96.70;;;;;;4959721;28;20074;-74
2021/09/11 09:11:16;;;;;;;7.20;6.50;;;24.40;96.70;;;;;;4958078;28;20062;-74
2021/09/11 09:13:54;;;;;;;7.68;5.95;;;24.50;96.70;;;;;;4955970;28;20058;-74
2021/09/11 09:16:23;;;;;;;8.88;6.00;;;24.70;96.70;;;;;;4959380;28;20229;-74
2021/09/11 09:18:52;;;;;;;6.45;5.72;;;24.70;96.30;;;;;;4958979;28;20479;-74
2021/09/11 09:21:25;;;;;;;7.13;6.38;;;24.80;96.10;;;;;;4958927;28;20447;-74
2021/09/11 09:23:55;;;;;;;8.27;5.25;;;24.90;95.10;;;;;;4960403;28;20084;-74
2021/09/11 09:26:24;;;;;;;6.32;5.72;;;24.90;94.60;;;;;;4957294;28;20043;-75
2021/09/11 09:29:04;;;;;;;6.15;5.22;;;25.00;93.90;;;;;;4970709;28;20089;-74
2021/09/11 09:31:33;;;;;;;6.63;5.75;;;25.00;93.20;;;;;;4956314;28;20114;-74
2021/09/11 09:34:01;;;;;;;6.25;5.60;;;25.20;92.90;;;;;;4960539;28;20125;-74
2021/09/11 09:36:35;;;;;;;5.57;5.05;;;25.20;93.00;;;;;;4956461;28;20049;-74
2021/09/11 09:39:06;;;;;;;8.63;5.32;;;25.30;92.50;;;;;;4962062;28;20058;-74
2021/09/11 09:41:46;;;;;;;7.95;6.00;;;25.50;92.10;;;;;;4960590;28;20459;-74
2021/09/11 09:44:16;;;;;;;6.35;5.47;;;25.60;92.00;;;;;;4986109;28;20043;-74
2021/09/11 09:46:46;;;;;;;6.93;5.65;;;25.80;91.70;;;;;;4962473;28;20046;-74
2021/09/11 09:49:18;;;;;;;6.40;5.22;;;26.10;90.90;;;;;;4979653;28;20059;-74
2021/09/11 09:51:48;;;;;;;7.97;5.70;;;26.30;89.50;;;;;;4956097;28;20063;-74
2021/09/11 09:54:17;;;;;;;6.07;5.25;;;26.40;89.20;;;;;;4959796;28;20588;-74
2021/09/11 09:56:45;;;;;;;7.38;5.35;;;26.50;88.90;;;;;;4958589;28;20043;-74
2021/09/11 09:59:15;;;;;;;8.73;5.68;;;26.60;88.80;;;;;;4964000;28;20181;-74
2021/09/11 10:01:44;;;;;;;6.03;5.53;;;26.70;88.80;;;;;;4968466;28;20513;-74
2021/09/11 10:04:14;;;;;;;5.85;5.25;;;26.90;88.70;;;;;;4964024;28;20050;-75
2021/09/11 10:06:45;;;;;;;5.85;4.65;;;27.00;87.80;;;;;;4962904;28;20523;-74
2021/09/11 10:09:15;;;;;;;7.45;5.53;;;27.10;87.60;;;;;;4961471;28;20043;-75
2021/09/11 10:11:49;;;;;;;6.50;5.10;;;27.20;87.90;;;;;;4949199;28;20354;-74
2021/09/11 10:14:20;;;;;;;6.20;5.60;;;27.20;87.50;;;;;;4961671;28;20066;-74
2021/09/11 10:16:58;;;;;;;6.65;5.30;;;27.20;86.50;;;;;;4955835;28;20058;-75
2021/09/11 10:19:27;;;;;;;7.43;5.00;;;27.30;87.00;;;;;;4962350;28;20047;-74
2021/09/11 10:22:24;;;;;;;6.47;5.47;;;27.30;86.80;;;;;;4963324;28;20055;-75
2021/09/11 10:25:02;;;;;;;5.93;5.32;;;27.40;86.40;;;;;;4964864;28;20047;-75
2021/09/11 10:27:36;;;;;;;6.53;5.18;;;27.60;85.80;;;;;;4965703;28;20046;-75
2021/09/11 10:30:10;;;;;;;6.22;5.63;;;27.70;85.30;;;;;;4962672;28;20514;-75
2021/09/11 10:32:41;;;;;;;5.32;4.82;;;28.00;85.50;;;;;;4961947;28;20545;-75
2021/09/11 10:35:12;;;;;;;6.05;5.22;;;28.20;85.20;;;;;;4972351;28;20054;-75
2021/09/11 10:37:44;;;;;;;8.07;5.50;;;28.40;85.20;;;;;;4954149;28;20125;-75
2021/09/11 10:40:35;;;;;;;8.05;5.15;;;28.50;83.70;;;;;;4963210;28;20050;-74
2021/09/11 10:43:24;;;;;;;6.82;4.65;;;28.60;83.70;;;;;;4954740;28;20133;-74
2021/09/11 10:46:02;;;;;;;6.72;5.60;;;28.80;83.80;;;;;;4964270;28;20047;-75
2021/09/11 10:48:45;;;;;;;8.90;5.35;;;29.00;83.60;;;;;;4973761;28;20062;-74
2021/09/11 10:51:20;;;;;;;7.90;5.25;;;28.90;82.30;;;;;;4959542;28;20062;-75
2021/09/11 10:54:02;;;;;;;5.65;5.07;;;29.00;82.20;;;;;;4964479;28;20042;-74
2021/09/11 10:56:33;;;;;;;6.85;5.45;;;29.20;82.00;;;;;;4963499;28;20043;-75
2021/09/11 10:59:23;;;;;;;6.28;4.85;;;29.30;81.50;;;;;;4960971;28;20043;-74
2021/09/11 11:01:59;;;;;;;6.78;4.97;;;29.40;80.60;;;;;;4955510;28;20057;-75
2021/09/11 11:04:29;;;;;;;6.88;5.40;;;29.50;80.50;;;;;;4962656;28;20162;-75
2021/09/11 11:06:59;;;;;;;5.40;4.90;;;29.60;79.60;;;;;;4964054;28;20043;-75
2021/09/11 11:09:28;;;;;;;7.85;4.90;;;29.70;79.70;;;;;;4974990;28;20051;-74
2021/09/11 11:12:01;;;;;;;5.70;5.07;;;29.70;79.50;;;;;;4964457;28;20043;-74
2021/09/11 11:14:30;;;;;;;4.80;4.40;;;29.80;79.10;;;;;;4968766;28;20041;-75
2021/09/11 11:16:59;;;;;;;5.60;5.07;;;29.90;77.90;;;;;;4960932;28;20054;-74
2021/09/11 11:19:28;;;;;;;5.55;4.90;;;30.10;77.70;;;;;;4965726;28;20043;-75
2021/09/11 11:21:59;;;;;;;5.18;4.68;;;30.20;77.10;;;;;;4959300;28;20039;-75
2021/09/11 11:24:31;;;;;;;5.40;4.35;;;30.40;76.90;;;;;;4959955;28;20074;-75
2021/09/11 11:27:03;;;;;;;7.55;4.97;;;30.40;76.40;;;;;;4957938;28;20528;-74
2021/09/11 11:29:34;;;;;;;7.25;4.78;;;30.40;75.10;;;;;;4961301;28;20046;-74
2021/09/11 11:32:04;;;;;;;6.25;4.78;;;30.30;75.20;;;;;;4960955;28;20043;-74
2021/09/11 11:34:32;;;;;;;5.70;4.68;;;30.40;75.90;;;;;;4967267;28;20042;-75
2021/09/11 11:37:03;;;;;;;5.50;5.00;;;30.60;74.80;;;;;;4962287;28;20047;-75
2021/09/11 11:39:36;;;;;;;7.38;4.80;;;30.60;75.50;;;;;;4961521;28;20051;-74
2021/09/11 11:42:17;;;;;;;4.80;4.32;;;30.50;74.80;;;;;;4957374;28;20494;-75
2021/09/11 11:44:48;;;;;;;5.03;4.63;;;30.70;75.40;;;;;;4961641;28;20039;-75
2021/09/11 11:47:27;;;;;;;5.38;4.82;;;30.70;73.30;;;;;;4961905;28;20053;-75
2021/09/11 11:49:56;;;;;;;4.13;3.72;;;30.50;73.90;;;;;;4945505;28;20134;-75
2021/09/11 11:52:24;;;;;;;5.20;4.00;;;30.70;74.50;;;;;;4961487;28;20520;-74
2021/09/11 11:54:53;;;;;;;5.00;4.35;;;30.80;74.70;;;;;;4977044;28;20050;-75
2021/09/11 11:57:23;;;;;;;5.95;4.05;;;30.70;74.30;;;;;;4982946;28;20071;-74
2021/09/11 11:59:58;;;;;;;4.97;4.47;;;30.30;75.00;;;;;;4960907;28;20078;-75
2021/09/11 12:02:29;;;;;;;7.38;5.05;;;30.30;74.10;;;;;;4970047;28;20040;-74
2021/09/11 12:05:13;;;;;;;5.07;4.65;;;30.30;73.60;;;;;;4961257;28;20046;-75
2021/09/11 12:07:50;;;;;;;5.88;4.15;;;30.50;73.10;;;;;;4963351;28;20043;-75
2021/09/11 12:10:18;;;;;;;5.03;4.55;;;30.70;73.70;;;;;;4962497;28;20034;-74
2021/09/11 12:12:49;;;;;;;4.85;4.35;;;30.80;73.60;;;;;;4961151;28;20049;-75
2021/09/11 12:15:19;;;;;;;4.93;4.43;;;30.60;73.70;;;;;;4962030;28;20126;-75
2021/09/11 12:17:55;;;;;;;5.15;4.30;;;30.90;74.20;;;;;;4962232;28;20118;-74
2021/09/11 12:20:43;;;;;;;6.25;4.28;;;31.30;73.00;;;;;;4957289;28;20066;-75
2021/09/11 12:23:15;;;;;;;6.70;4.43;;;31.60;72.50;;;;;;4945376;28;20137;-75
2021/09/11 12:25:55;;;;;;;5.13;4.60;;;31.70;70.90;;;;;;4954415;28;20506;-75
2021/09/11 12:28:45;;;;;;;5.13;4.43;;;31.90;71.90;;;;;;4967042;28;20097;-74
2021/09/11 12:31:20;;;;;;;5.05;4.32;;;32.00;70.80;;;;;;4957500;28;20045;-75
2021/09/11 12:33:50;;;;;;;5.10;4.60;;;32.00;71.60;;;;;;4963207;28;20613;-75
2021/09/11 12:36:33;;;;;;;5.22;4.72;;;31.80;72.00;;;;;;4960517;28;20043;-75
2021/09/11 12:39:05;;;;;;;5.82;4.40;;;31.80;72.40;;;;;;4959511;28;20446;-75
2021/09/11 12:41:36;;;;;;;4.93;4.45;;;31.90;71.50;;;;;;4963880;28;20039;-75
2021/09/11 12:44:06;;;;;;;5.72;4.60;;;32.00;70.50;;;;;;4967906;28;20153;-75
2021/09/11 12:46:36;;;;;;;5.10;4.25;;;32.10;71.20;;;;;;4960029;28;20053;-75
2021/09/11 12:49:07;;;;;;;4.57;4.18;;;31.80;71.40;;;;;;4952754;28;20101;-75
2021/09/11 12:51:36;;;;;;;5.20;4.70;;;31.60;72.20;;;;;;4949086;28;20055;-74
2021/09/11 12:54:04;;;;;;;4.93;4.53;;;31.70;72.60;;;;;;4957107;28;20062;-75
2021/09/11 12:56:33;;;;;;;5.20;4.47;;;31.90;71.60;;;;;;4975443;28;20043;-75